PAEI METAR and TAF weather

Enter ICAO airport designator
Station Type Date Time Source
PAEI METAR 2021/08/02 02:56 UTC NOAA

PAEI 020256Z 30007KT 10SM SCT220 25/13 A3001 RMK AO2A SLP165 T02500129 57007 $


Station Type Date Time Source
PAEI Decoded METAR 2021/08/02 02:56 UTC NOAA

Fairbanks, Eielson Air Force Base, AK, United States (PAEI) 64-39N 147-06W 167M
Aug 01, 2021 - 10:56 PM EDT / 2021.08.02 0256 UTC
Wind: from the WNW (300 degrees) at 8 MPH (7 KT):0
Visibility: 10 mile(s):0
Sky conditions: partly cloudy
Temperature: 77.0 F (25.0 C)
Dew Point: 55.2 F (12.9 C)
Relative Humidity: 46%
Pressure (altimeter): 30.01 in. Hg (1016 hPa)
Pressure tendency: 0.02 inches (0.7 hPa) lower than three hours ago
ob: PAEI 020256Z 30007KT 10SM SCT220 25/13 A3001 RMK AO2A SLP165 T02500129 57007
cycle: 3

Station Type Date Time Source
PAEI TAF 2021/08/01 22:06 UTC NOAA

TAF TAF PAEI 012200Z 0122/0304 30009KT 9999 SCT085 BKN100 QNH3003INS
BECMG 0205/0206 VRB06KT 9999 FEW075 SCT150 QNH3004INS TX27/0202Z TN12/0214Z

Example: see airport list